Time;durP1;ratioP1;P1;durP2;ratioP2;P2;SDS_P1;SDS_P2;PMS_P1;PMS_P2;Temp;Humidity;BMP_temperature;BMP_pressure;BME280_temperature;BME280_humidity;BME280_pressure;Samples;Min_cycle;Max_cycle;Signal;HPM_P1;HPM_P2
2020/12/30 00:00:41;;;;;;;0.93;0.60;;;;;;;;;;4725858;30;20219;-80
2020/12/30 00:03:44;;;;;;;0.50;0.50;;;;;;;;;;4769778;30;20241;-81
2020/12/30 00:06:28;;;;;;;0.40;0.40;;;;;;;;;;4772050;30;20213;-81
2020/12/30 00:09:15;;;;;;;1.10;0.50;;;;;;;;;;4772562;29;20225;-81
2020/12/30 00:12:01;;;;;;;0.70;0.70;;;;;;;;;;4788590;29;20254;-80
2020/12/30 00:14:48;;;;;;;0.73;0.60;;;;;;;;;;4796614;29;20217;-81
2020/12/30 00:22:28;;;;;;;0.83;0.50;;;;;;;;;;4800997;29;20208;-81
2020/12/30 00:30:19;;;;;;;1.37;0.70;;;;;;;;;;4794003;29;20224;-81
2020/12/30 00:37:43;;;;;;;0.87;0.53;;;;;;;;;;4776908;29;20228;-81
2020/12/30 00:44:06;;;;;;;1.30;0.90;;;;;;;;;;4772754;29;20223;-81
2020/12/30 00:46:45;;;;;;;0.70;0.57;;;;;;;;;;4776920;29;20216;-81
2020/12/30 00:49:32;;;;;;;1.70;0.60;;;;;;;;;;4802085;29;20650;-81
2020/12/30 00:52:26;;;;;;;0.83;0.50;;;;;;;;;;4790617;29;20233;-80
2020/12/30 00:55:22;;;;;;;1.40;0.70;;;;;;;;;;4793661;29;20246;-81
2020/12/30 00:58:34;;;;;;;0.70;0.60;;;;;;;;;;4781910;29;20767;-81
2020/12/30 01:26:45;;;;;;;1.13;0.60;;;;;;;;;;4725490;30;20228;-81
2020/12/30 01:29:27;;;;;;;0.63;0.63;;;;;;;;;;4734970;30;20210;-80
2020/12/30 01:32:00;;;;;;;0.77;0.70;;;;;;;;;;4766007;30;20263;-80
2020/12/30 01:34:35;;;;;;;0.63;0.60;;;;;;;;;;4753799;30;20215;-83
2020/12/30 01:37:11;;;;;;;0.60;0.60;;;;;;;;;;4738971;30;20218;-80
2020/12/30 01:39:50;;;;;;;0.60;0.60;;;;;;;;;;4750906;30;20222;-79
2020/12/30 01:42:24;;;;;;;1.17;0.87;;;;;;;;;;4734035;30;20333;-79
2020/12/30 01:44:57;;;;;;;3.30;1.10;;;;;;;;;;4751693;30;20454;-79
2020/12/30 01:47:29;;;;;;;0.60;0.60;;;;;;;;;;4733759;30;20214;-79
2020/12/30 01:50:02;;;;;;;1.23;0.77;;;;;;;;;;4756734;30;20225;-79
2020/12/30 01:52:38;;;;;;;2.57;0.70;;;;;;;;;;4752516;30;20234;-79
2020/12/30 01:55:23;;;;;;;1.37;0.70;;;;;;;;;;4745437;30;20230;-78
2020/12/30 02:02:45;;;;;;;1.23;0.73;;;;;;;;;;4762966;30;20238;-79
2020/12/30 02:06:07;;;;;;;0.97;0.90;;;;;;;;;;4755079;30;20206;-79
2020/12/30 02:25:14;;;;;;;1.53;0.73;;;;;;;;;;4791760;29;20223;-79
2020/12/30 02:28:09;;;;;;;1.37;0.93;;;;;;;;;;4793443;29;20215;-79
2020/12/30 02:40:24;;;;;;;0.80;0.80;;;;;;;;;;4809849;29;20216;-79
2020/12/30 02:43:36;;;;;;;0.70;0.70;;;;;;;;;;4809193;29;20232;-79
2020/12/30 02:46:31;;;;;;;2.20;1.03;;;;;;;;;;4816405;29;20215;-79
2020/12/30 02:53:56;;;;;;;1.43;0.93;;;;;;;;;;4810303;29;20232;-79
2020/12/30 03:03:29;;;;;;;1.17;1.07;;;;;;;;;;4785204;29;20244;-79
2020/12/30 03:06:09;;;;;;;2.47;1.10;;;;;;;;;;4780827;29;20214;-79
2020/12/30 03:08:55;;;;;;;3.20;1.60;;;;;;;;;;4788882;29;20211;-78
2020/12/30 03:11:39;;;;;;;2.30;1.20;;;;;;;;;;4804859;29;20699;-79
2020/12/30 03:19:50;;;;;;;2.50;1.60;;;;;;;;;;4804620;29;20224;-79
2020/12/30 03:32:05;;;;;;;1.87;1.40;;;;;;;;;;4764700;30;20205;-79
2020/12/30 03:35:11;;;;;;;1.93;1.50;;;;;;;;;;4770027;29;20220;-79
2020/12/30 03:44:27;;;;;;;3.83;2.80;;;;;;;;;;4815971;29;20710;-80
2020/12/30 03:47:32;;;;;;;3.23;2.40;;;;;;;;;;4819824;29;20240;-79
2020/12/30 03:55:04;;;;;;;2.10;1.90;;;;;;;;;;4813740;29;20592;-81
2020/12/30 04:39:44;;;;;;;3.93;2.33;;;;;;;;;;4733794;30;20235;-79
2020/12/30 04:46:56;;;;;;;2.93;2.37;;;;;;;;;;4727692;30;20226;-80
2020/12/30 04:50:16;;;;;;;5.37;2.43;;;;;;;;;;4735271;30;20228;-80
2020/12/30 05:00:52;;;;;;;2.43;2.20;;;;;;;;;;4477293;27;18652696;-80
2020/12/30 05:54:52;;;;;;;3.20;2.90;;;;;;;;;;4826822;29;20226;-81
2020/12/30 05:57:47;;;;;;;3.20;2.57;;;;;;;;;;4866630;29;20205;-81
2020/12/30 06:00:45;;;;;;;4.93;3.80;;;;;;;;;;4918970;28;20254;-81
2020/12/30 06:03:33;;;;;;;6.23;4.63;;;;;;;;;;4950879;28;20227;-82
2020/12/30 07:04:37;;;;;;;7.57;5.77;;;;;;;;;;5016642;28;20200;-81
2020/12/30 07:08:11;;;;;;;7.17;4.80;;;;;;;;;;5029204;28;20698;-81
2020/12/30 07:15:30;;;;;;;4.37;3.60;;;;;;;;;;5004979;28;20450;-81
2020/12/30 07:26:38;;;;;;;4.40;2.87;;;;;;;;;;4949940;28;20202;-81
2020/12/30 07:29:35;;;;;;;3.73;3.17;;;;;;;;;;4970098;28;20691;-81
2020/12/30 07:32:21;;;;;;;3.90;3.20;;;;;;;;;;4942958;28;20605;-80
2020/12/30 07:35:08;;;;;;;3.70;3.00;;;;;;;;;;5002900;28;20435;-80
2020/12/30 07:37:50;;;;;;;3.80;3.17;;;;;;;;;;5008971;28;20198;-80
2020/12/30 07:47:08;;;;;;;3.17;2.87;;;;;;;;;;5001762;28;20319;-81
2020/12/30 07:50:15;;;;;;;5.77;3.50;;;;;;;;;;5011674;28;20674;-80
2020/12/30 07:53:25;;;;;;;3.87;3.00;;;;;;;;;;4998671;28;20247;-81
2020/12/30 07:56:42;;;;;;;3.77;3.20;;;;;;;;;;5007737;28;20243;-81
2020/12/30 08:00:35;;;;;;;4.40;3.33;;;;;;;;;;5022738;28;20634;-81
2020/12/30 08:03:22;;;;;;;4.80;3.87;;;;;;;;;;5058689;28;20233;-81
2020/12/30 08:05:53;;;;;;;5.07;3.40;;;;;;;;;;5049570;28;20690;-81
2020/12/30 08:08:24;;;;;;;6.27;3.57;;;;;;;;;;5053448;28;20695;-81
2020/12/30 08:10:57;;;;;;;6.17;4.60;;;;;;;;;;5055808;28;20203;-82
2020/12/30 08:13:28;;;;;;;7.43;4.47;;;;;;;;;;5073197;28;20222;-82
2020/12/30 08:15:58;;;;;;;6.37;4.57;;;;;;;;;;5061165;28;20213;-81
2020/12/30 08:18:28;;;;;;;8.33;5.07;;;;;;;;;;5048284;28;20203;-81
2020/12/30 08:21:00;;;;;;;9.03;4.53;;;;;;;;;;5053790;28;20397;-81
2020/12/30 08:23:29;;;;;;;7.63;4.77;;;;;;;;;;5041434;28;20218;-81
2020/12/30 08:26:01;;;;;;;10.27;4.97;;;;;;;;;;5060141;28;20209;-81
2020/12/30 08:28:32;;;;;;;7.97;4.50;;;;;;;;;;5078082;28;20209;-80
2020/12/30 08:31:02;;;;;;;5.23;4.37;;;;;;;;;;5060946;28;20210;-80
2020/12/30 08:33:32;;;;;;;5.03;4.07;;;;;;;;;;5066262;28;20229;-81
2020/12/30 08:36:16;;;;;;;4.50;4.10;;;;;;;;;;5053187;28;20194;-81
2020/12/30 08:38:46;;;;;;;4.90;3.77;;;;;;;;;;5044958;28;20211;-81
2020/12/30 08:41:18;;;;;;;6.20;4.30;;;;;;;;;;5058088;28;20744;-81
2020/12/30 08:43:49;;;;;;;5.43;3.97;;;;;;;;;;5072366;28;20612;-82
2020/12/30 08:46:25;;;;;;;5.10;3.90;;;;;;;;;;5045274;28;20203;-81
2020/12/30 08:48:57;;;;;;;4.03;3.40;;;;;;;;;;5042166;28;20206;-81
2020/12/30 08:51:29;;;;;;;5.40;4.00;;;;;;;;;;5051281;28;20198;-81
2020/12/30 08:54:15;;;;;;;5.03;4.03;;;;;;;;;;5057131;28;20198;-81
2020/12/30 08:56:48;;;;;;;5.83;4.13;;;;;;;;;;5071427;28;20213;-81
2020/12/30 08:59:24;;;;;;;5.90;3.90;;;;;;;;;;5064241;28;20703;-82
2020/12/30 09:02:11;;;;;;;6.10;4.10;;;;;;;;;;5079555;28;20229;-81
2020/12/30 09:04:56;;;;;;;5.87;4.57;;;;;;;;;;5069630;28;20203;-79
2020/12/30 09:07:29;;;;;;;7.93;5.30;;;;;;;;;;5047053;28;20202;-82
2020/12/30 09:10:04;;;;;;;7.07;4.63;;;;;;;;;;5051243;28;20205;-82
2020/12/30 09:12:35;;;;;;;6.50;4.93;;;;;;;;;;5059457;28;20224;-81
2020/12/30 09:15:06;;;;;;;6.50;4.73;;;;;;;;;;5054172;28;20195;-81
2020/12/30 09:17:38;;;;;;;4.43;3.70;;;;;;;;;;5059017;28;20229;-81
2020/12/30 09:20:13;;;;;;;4.73;3.90;;;;;;;;;;5076458;28;20235;-82
2020/12/30 09:22:47;;;;;;;4.43;3.70;;;;;;;;;;5045035;28;20222;-81
2020/12/30 10:18:36;;;;;;;2.67;2.30;;;;;;;;;;4955450;28;20203;-80
2020/12/30 10:22:28;;;;;;;2.30;2.10;;;;;;;;;;4989649;28;20434;-79
2020/12/30 10:38:35;;;;;;;2.67;2.10;;;;;;;;;;5091373;28;20214;-81
2020/12/30 10:41:20;;;;;;;2.30;2.03;;;;;;;;;;5057663;28;20236;-79
2020/12/30 10:44:32;;;;;;;2.33;2.00;;;;;;;;;;5078269;28;20241;-78
2020/12/30 10:47:15;;;;;;;2.63;2.10;;;;;;;;;;5062728;28;20650;-78
2020/12/30 10:55:27;;;;;;;3.10;2.00;;;;;;;;;;5002895;28;20209;-80
2020/12/30 10:58:28;;;;;;;2.17;1.77;;;;;;;;;;5048474;28;20206;-80
2020/12/30 11:01:25;;;;;;;3.43;2.30;;;;;;;;;;5054753;28;20219;-81
2020/12/30 11:07:41;;;;;;;2.80;2.00;;;;;;;;;;5070838;28;20217;-81
2020/12/30 11:10:28;;;;;;;3.47;2.13;;;;;;;;;;5052618;28;20198;-81
2020/12/30 11:13:45;;;;;;;2.70;1.80;;;;;;;;;;5056342;28;20229;-79
2020/12/30 11:16:42;;;;;;;2.47;2.20;;;;;;;;;;5067451;28;20209;-79
2020/12/30 11:19:46;;;;;;;1.87;1.70;;;;;;;;;;5046438;28;20222;-81
2020/12/30 11:22:21;;;;;;;4.13;2.27;;;;;;;;;;5037987;28;20777;-78
2020/12/30 11:25:01;;;;;;;1.93;1.80;;;;;;;;;;5078127;28;20229;-79
2020/12/30 11:27:42;;;;;;;2.17;1.90;;;;;;;;;;5056515;28;20236;-79
2020/12/30 11:30:26;;;;;;;2.80;1.80;;;;;;;;;;5073465;28;20691;-79
2020/12/30 11:33:03;;;;;;;2.87;2.10;;;;;;;;;;5053213;28;20233;-79
2020/12/30 11:35:55;;;;;;;2.27;1.83;;;;;;;;;;5052930;28;20202;-79
2020/12/30 11:38:34;;;;;;;2.40;1.80;;;;;;;;;;5053663;28;21447;-79
2020/12/30 11:41:08;;;;;;;3.73;2.00;;;;;;;;;;5049766;28;20222;-79
2020/12/30 11:43:42;;;;;;;2.27;2.03;;;;;;;;;;5060662;28;20226;-79
2020/12/30 11:46:19;;;;;;;3.83;2.20;;;;;;;;;;5035030;28;20210;-79
2020/12/30 11:48:53;;;;;;;2.70;1.87;;;;;;;;;;5050070;28;20202;-79
2020/12/30 11:51:25;;;;;;;2.40;2.07;;;;;;;;;;5067337;28;20194;-79
2020/12/30 11:53:56;;;;;;;3.13;2.17;;;;;;;;;;5049600;28;20207;-79
2020/12/30 11:56:28;;;;;;;3.50;2.30;;;;;;;;;;5075584;28;20194;-78
2020/12/30 11:59:01;;;;;;;1.87;1.63;;;;;;;;;;5077189;28;20205;-79
2020/12/30 12:01:35;;;;;;;2.23;1.90;;;;;;;;;;5091023;28;20606;-80
2020/12/30 12:04:12;;;;;;;2.43;2.13;;;;;;;;;;5049975;28;20201;-79
2020/12/30 12:06:57;;;;;;;2.50;2.30;;;;;;;;;;5054148;28;20202;-79
2020/12/30 12:09:30;;;;;;;2.93;2.07;;;;;;;;;;5060532;28;20218;-79
2020/12/30 12:12:01;;;;;;;3.20;1.87;;;;;;;;;;5058301;28;20230;-79
2020/12/30 12:14:33;;;;;;;2.40;2.07;;;;;;;;;;5040032;28;20514;-82
2020/12/30 12:17:07;;;;;;;1.70;1.60;;;;;;;;;;5050815;28;20198;-78
2020/12/30 12:19:41;;;;;;;2.60;2.17;;;;;;;;;;5047820;28;20206;-79
2020/12/30 12:22:14;;;;;;;2.17;1.90;;;;;;;;;;5047866;28;20226;-79
2020/12/30 12:24:47;;;;;;;2.30;1.93;;;;;;;;;;5051753;28;20207;-80
2020/12/30 12:27:17;;;;;;;2.53;1.93;;;;;;;;;;5047094;28;20581;-79
2020/12/30 12:29:51;;;;;;;2.03;1.70;;;;;;;;;;5048162;28;20207;-79
2020/12/30 12:32:33;;;;;;;3.03;1.93;;;;;;;;;;5061825;28;20213;-80
2020/12/30 12:35:47;;;;;;;2.10;1.60;;;;;;;;;;5066427;28;20446;-82
2020/12/30 12:39:13;;;;;;;1.80;1.70;;;;;;;;;;5067991;28;20206;-81
2020/12/30 12:42:53;;;;;;;2.00;1.30;;;;;;;;;;5072556;28;20225;-85
2020/12/30 12:45:32;;;;;;;3.73;1.90;;;;;;;;;;5060777;28;20194;-83
2020/12/30 12:48:00;;;;;;;1.47;1.30;;;;;;;;;;5077336;28;20214;-84
2020/12/30 12:50:29;;;;;;;1.53;1.43;;;;;;;;;;5081733;28;20712;-84
2020/12/30 12:52:57;;;;;;;1.97;1.47;;;;;;;;;;5067994;28;20707;-84
2020/12/30 12:55:24;;;;;;;1.77;1.60;;;;;;;;;;5068211;28;20201;-84
2020/12/30 12:57:52;;;;;;;1.80;1.30;;;;;;;;;;5080599;28;20422;-83
2020/12/30 13:00:20;;;;;;;2.00;1.40;;;;;;;;;;5074939;28;20234;-84
2020/12/30 13:02:48;;;;;;;3.40;1.80;;;;;;;;;;5062104;28;20743;-81
2020/12/30 13:05:17;;;;;;;1.90;1.63;;;;;;;;;;5077619;28;20209;-83
2020/12/30 13:07:44;;;;;;;2.07;1.70;;;;;;;;;;5074942;28;20424;-81
2020/12/30 13:10:12;;;;;;;2.37;1.70;;;;;;;;;;5088187;28;20198;-82
2020/12/30 13:12:40;;;;;;;2.77;1.57;;;;;;;;;;5043972;28;20223;-82
2020/12/30 13:15:07;;;;;;;2.03;1.47;;;;;;;;;;5040479;28;20723;-81
2020/12/30 13:17:35;;;;;;;2.27;1.40;;;;;;;;;;5035469;28;20232;-80
2020/12/30 13:20:03;;;;;;;2.20;1.77;;;;;;;;;;5043665;28;20223;-80
2020/12/30 13:22:32;;;;;;;1.60;1.43;;;;;;;;;;5035046;28;20223;-79
2020/12/30 13:25:00;;;;;;;2.30;1.50;;;;;;;;;;5062272;28;20254;-79
2020/12/30 13:27:28;;;;;;;2.80;1.60;;;;;;;;;;5046623;28;20215;-79
2020/12/30 13:29:58;;;;;;;1.97;1.47;;;;;;;;;;5035670;28;20232;-79
2020/12/30 13:32:25;;;;;;;2.17;1.57;;;;;;;;;;5034683;28;20227;-79
2020/12/30 13:34:53;;;;;;;1.90;1.40;;;;;;;;;;5049367;28;20712;-79
2020/12/30 13:37:21;;;;;;;1.63;1.50;;;;;;;;;;5027955;28;20243;-79
2020/12/30 13:39:50;;;;;;;2.83;1.70;;;;;;;;;;5037222;28;20215;-80
2020/12/30 13:42:18;;;;;;;1.53;1.33;;;;;;;;;;5030600;28;20235;-79
2020/12/30 13:44:46;;;;;;;1.60;1.50;;;;;;;;;;5033018;28;20681;-79
2020/12/30 13:47:14;;;;;;;1.57;1.27;;;;;;;;;;5036997;28;20235;-79
2020/12/30 13:49:42;;;;;;;1.40;1.30;;;;;;;;;;5012880;28;20236;-80
2020/12/30 13:52:10;;;;;;;1.67;1.30;;;;;;;;;;5042126;28;20735;-80
2020/12/30 13:54:38;;;;;;;1.40;1.20;;;;;;;;;;5023819;28;20230;-80
2020/12/30 13:57:07;;;;;;;3.17;1.37;;;;;;;;;;5051600;28;20235;-80
2020/12/30 13:59:35;;;;;;;1.93;1.40;;;;;;;;;;5031431;28;20310;-80
2020/12/30 14:02:03;;;;;;;2.47;1.17;;;;;;;;;;5050968;28;20232;-80
2020/12/30 14:04:30;;;;;;;2.17;1.10;;;;;;;;;;5049822;28;20223;-80
2020/12/30 14:06:59;;;;;;;1.73;1.43;;;;;;;;;;5068112;28;20234;-80
2020/12/30 14:09:28;;;;;;;4.50;1.50;;;;;;;;;;5027584;28;20223;-80
2020/12/30 14:11:56;;;;;;;2.20;1.13;;;;;;;;;;5038831;28;20590;-80
2020/12/30 14:14:25;;;;;;;1.57;1.37;;;;;;;;;;5044926;28;20232;-80
2020/12/30 14:16:53;;;;;;;2.60;1.27;;;;;;;;;;5046594;28;20237;-79
2020/12/30 14:19:21;;;;;;;1.87;1.03;;;;;;;;;;5047451;28;20235;-79
2020/12/30 14:21:52;;;;;;;1.37;1.10;;;;;;;;;;5032159;28;20231;-80
2020/12/30 14:24:20;;;;;;;1.67;1.40;;;;;;;;;;5018399;28;20223;-79
2020/12/30 14:26:48;;;;;;;2.40;1.50;;;;;;;;;;5056055;28;20626;-80
2020/12/30 14:29:16;;;;;;;3.83;1.73;;;;;;;;;;5074997;28;20409;-80
2020/12/30 14:31:50;;;;;;;1.40;1.30;;;;;;;;;;5027804;28;20227;-79
2020/12/30 14:34:18;;;;;;;1.60;1.20;;;;;;;;;;5047698;28;20230;-80
2020/12/30 14:36:49;;;;;;;1.63;1.20;;;;;;;;;;5048508;28;20747;-80
2020/12/30 14:39:17;;;;;;;1.50;1.10;;;;;;;;;;5046221;28;20231;-79
2020/12/30 14:41:45;;;;;;;2.53;1.40;;;;;;;;;;5038513;28;20322;-80
2020/12/30 14:44:13;;;;;;;1.33;1.23;;;;;;;;;;5030979;28;20230;-80
2020/12/30 14:46:40;;;;;;;1.33;1.23;;;;;;;;;;5046356;28;20219;-80
2020/12/30 14:49:11;;;;;;;2.43;1.70;;;;;;;;;;5037556;28;20227;-80
2020/12/30 14:51:39;;;;;;;1.93;1.30;;;;;;;;;;5027085;28;20227;-81
2020/12/30 14:54:08;;;;;;;1.60;1.40;;;;;;;;;;5034103;28;20227;-80
2020/12/30 14:56:35;;;;;;;2.07;1.40;;;;;;;;;;5048472;28;20235;-80
2020/12/30 14:59:04;;;;;;;1.80;1.30;;;;;;;;;;5028056;28;20724;-80
2020/12/30 15:01:32;;;;;;;2.83;1.27;;;;;;;;;;5025392;28;20231;-80
2020/12/30 15:04:01;;;;;;;1.90;1.50;;;;;;;;;;5042643;28;20220;-80
2020/12/30 15:06:30;;;;;;;2.37;1.50;;;;;;;;;;5045175;28;20223;-79
2020/12/30 15:08:58;;;;;;;2.23;1.70;;;;;;;;;;5029234;28;20226;-80
2020/12/30 15:11:28;;;;;;;1.40;1.30;;;;;;;;;;5045583;28;20229;-80
2020/12/30 15:13:57;;;;;;;3.07;1.50;;;;;;;;;;5060914;28;20227;-80
2020/12/30 15:16:26;;;;;;;2.23;1.40;;;;;;;;;;5041479;28;20231;-80
2020/12/30 15:18:53;;;;;;;2.23;1.60;;;;;;;;;;5053064;28;20223;-80
2020/12/30 15:21:21;;;;;;;2.37;1.60;;;;;;;;;;5025192;28;20228;-80
2020/12/30 15:23:51;;;;;;;1.83;1.63;;;;;;;;;;5040569;28;20242;-80
2020/12/30 15:26:19;;;;;;;2.47;1.40;;;;;;;;;;5039844;28;20227;-80
2020/12/30 15:28:47;;;;;;;3.53;2.33;;;;;;;;;;5039201;28;20220;-80
2020/12/30 15:31:15;;;;;;;2.43;1.97;;;;;;;;;;5002528;28;20222;-80
2020/12/30 15:33:43;;;;;;;2.97;1.87;;;;;;;;;;5019170;28;20236;-80
2020/12/30 15:36:11;;;;;;;2.07;1.63;;;;;;;;;;5053336;28;20599;-80
2020/12/30 15:38:39;;;;;;;3.13;1.73;;;;;;;;;;5033851;28;20223;-80
2020/12/30 15:41:08;;;;;;;2.70;2.07;;;;;;;;;;5060800;28;20235;-80
2020/12/30 15:43:35;;;;;;;3.70;1.90;;;;;;;;;;5042737;28;20223;-79
2020/12/30 15:46:03;;;;;;;3.23;1.83;;;;;;;;;;5064265;28;20222;-80
2020/12/30 15:48:31;;;;;;;2.30;2.10;;;;;;;;;;5044998;28;20215;-80
2020/12/30 15:51:00;;;;;;;2.50;1.90;;;;;;;;;;5043412;28;20929;-80
2020/12/30 15:53:28;;;;;;;3.47;2.03;;;;;;;;;;5027002;28;20224;-81
2020/12/30 15:55:56;;;;;;;4.30;2.30;;;;;;;;;;5026024;28;20606;-80
2020/12/30 15:58:25;;;;;;;4.40;2.20;;;;;;;;;;5028899;28;20231;-80
2020/12/30 16:00:53;;;;;;;3.57;2.27;;;;;;;;;;5056781;28;20236;-79
2020/12/30 16:03:21;;;;;;;4.53;2.30;;;;;;;;;;5053597;28;20226;-80
2020/12/30 16:05:49;;;;;;;4.00;2.00;;;;;;;;;;5045946;28;20242;-79
2020/12/30 16:08:16;;;;;;;6.60;2.50;;;;;;;;;;5066553;28;20445;-79
2020/12/30 16:10:45;;;;;;;3.37;2.23;;;;;;;;;;5079810;28;20225;-78
2020/12/30 16:13:13;;;;;;;2.57;2.00;;;;;;;;;;5061291;28;22800;-79
2020/12/30 16:15:41;;;;;;;2.57;2.10;;;;;;;;;;5081859;28;20228;-79
2020/12/30 16:18:09;;;;;;;3.83;2.10;;;;;;;;;;5057667;28;20232;-79
2020/12/30 16:20:38;;;;;;;7.17;3.27;;;;;;;;;;5033204;28;20298;-80
2020/12/30 16:23:07;;;;;;;2.67;2.20;;;;;;;;;;5045193;28;20258;-80
2020/12/30 16:25:35;;;;;;;3.50;2.47;;;;;;;;;;5031467;28;20250;-80
2020/12/30 16:28:02;;;;;;;3.50;2.50;;;;;;;;;;5019773;28;20219;-80
2020/12/30 16:30:31;;;;;;;3.63;2.20;;;;;;;;;;5016296;28;20467;-80
2020/12/30 16:33:00;;;;;;;3.70;2.30;;;;;;;;;;5020369;28;20242;-81
2020/12/30 16:35:28;;;;;;;3.03;2.23;;;;;;;;;;5014424;28;20228;-80
2020/12/30 16:37:56;;;;;;;3.30;2.30;;;;;;;;;;5029797;28;20239;-80
2020/12/30 16:40:25;;;;;;;2.70;2.30;;;;;;;;;;5031617;28;20615;-80
2020/12/30 16:42:53;;;;;;;4.67;2.97;;;;;;;;;;5017234;28;20435;-81
2020/12/30 16:45:21;;;;;;;2.70;2.23;;;;;;;;;;5031505;28;20219;-81
2020/12/30 16:47:49;;;;;;;3.07;2.77;;;;;;;;;;5034995;28;20245;-81
2020/12/30 16:50:18;;;;;;;2.83;2.37;;;;;;;;;;5026454;28;20228;-80
2020/12/30 16:52:46;;;;;;;2.87;2.43;;;;;;;;;;5002746;28;20242;-80
2020/12/30 16:55:14;;;;;;;4.57;2.30;;;;;;;;;;5043406;28;20230;-80
2020/12/30 16:57:42;;;;;;;2.53;2.30;;;;;;;;;;5010528;28;20238;-80
2020/12/30 17:00:10;;;;;;;2.87;2.57;;;;;;;;;;5033649;28;20224;-81
2020/12/30 17:02:38;;;;;;;2.77;2.40;;;;;;;;;;5012519;28;20600;-80
2020/12/30 17:05:08;;;;;;;5.63;3.53;;;;;;;;;;5029904;28;20234;-80
2020/12/30 17:07:36;;;;;;;4.13;2.67;;;;;;;;;;5028661;28;20250;-80
2020/12/30 17:10:05;;;;;;;4.63;2.83;;;;;;;;;;4996667;28;20261;-80
2020/12/30 17:12:33;;;;;;;3.70;3.00;;;;;;;;;;5033699;28;20239;-80
2020/12/30 17:15:01;;;;;;;5.83;2.93;;;;;;;;;;5010140;28;20231;-81
2020/12/30 17:17:33;;;;;;;3.87;3.20;;;;;;;;;;5021227;28;20238;-80
2020/12/30 17:20:01;;;;;;;4.07;2.87;;;;;;;;;;5001801;28;20226;-80
2020/12/30 17:22:30;;;;;;;4.97;2.70;;;;;;;;;;5025366;28;20232;-80
2020/12/30 17:24:58;;;;;;;2.60;2.37;;;;;;;;;;5043772;28;20230;-81
2020/12/30 17:27:27;;;;;;;4.57;2.90;;;;;;;;;;5022738;28;20220;-79
2020/12/30 17:29:55;;;;;;;4.23;2.97;;;;;;;;;;5013647;28;20242;-80
2020/12/30 17:32:23;;;;;;;5.03;2.50;;;;;;;;;;5012637;28;20220;-80
2020/12/30 17:34:51;;;;;;;3.73;2.60;;;;;;;;;;5031125;28;20227;-82
2020/12/30 17:37:19;;;;;;;4.33;3.07;;;;;;;;;;5038122;28;20227;-80
2020/12/30 17:39:47;;;;;;;5.03;3.00;;;;;;;;;;5037796;28;20586;-81
2020/12/30 17:42:15;;;;;;;4.30;2.63;;;;;;;;;;5037575;28;20255;-80
2020/12/30 17:44:43;;;;;;;4.70;3.17;;;;;;;;;;5035837;28;20224;-79
2020/12/30 17:47:11;;;;;;;5.40;3.77;;;;;;;;;;5010371;28;20612;-80
2020/12/30 17:49:40;;;;;;;4.87;3.53;;;;;;;;;;5025664;28;20227;-80
2020/12/30 17:52:08;;;;;;;5.23;2.80;;;;;;;;;;5029564;28;20224;-79
2020/12/30 17:54:35;;;;;;;5.53;3.17;;;;;;;;;;5033077;28;20224;-80
2020/12/30 17:57:03;;;;;;;3.23;2.67;;;;;;;;;;5033026;28;20228;-80
2020/12/30 17:59:32;;;;;;;3.77;2.23;;;;;;;;;;5013759;28;20421;-80
2020/12/30 18:01:59;;;;;;;2.43;2.10;;;;;;;;;;5012999;28;20617;-79
2020/12/30 18:04:27;;;;;;;3.47;2.53;;;;;;;;;;5030150;28;20605;-80
2020/12/30 18:06:57;;;;;;;2.30;2.03;;;;;;;;;;5007852;28;21766;-81
2020/12/30 18:09:25;;;;;;;4.00;2.23;;;;;;;;;;5040164;28;21043;-79
2020/12/30 18:11:53;;;;;;;2.03;1.80;;;;;;;;;;5025383;28;20227;-79
2020/12/30 18:14:21;;;;;;;3.30;2.00;;;;;;;;;;5033349;28;20224;-79
2020/12/30 18:16:50;;;;;;;3.53;1.97;;;;;;;;;;5006039;28;20804;-79
2020/12/30 18:19:17;;;;;;;2.57;1.90;;;;;;;;;;5036468;28;20227;-79
2020/12/30 18:21:45;;;;;;;2.30;2.10;;;;;;;;;;5024030;28;20634;-79
2020/12/30 18:24:13;;;;;;;56.10;20.30;;;;;;;;;;5018558;28;20231;-79
2020/12/30 18:26:42;;;;;;;3.77;2.00;;;;;;;;;;5047608;28;20226;-79
2020/12/30 18:29:10;;;;;;;2.43;1.83;;;;;;;;;;5030180;28;20233;-80
2020/12/30 18:31:44;;;;;;;2.33;2.10;;;;;;;;;;5051250;28;20222;-79
2020/12/30 18:34:12;;;;;;;2.30;1.80;;;;;;;;;;5040082;28;20231;-79
2020/12/30 18:36:40;;;;;;;3.20;2.13;;;;;;;;;;5053995;28;20235;-80
2020/12/30 18:39:08;;;;;;;3.13;2.03;;;;;;;;;;5036985;28;20733;-82
2020/12/30 18:41:36;;;;;;;4.30;1.67;;;;;;;;;;5045953;28;20238;-80
2020/12/30 18:44:05;;;;;;;2.60;2.07;;;;;;;;;;5012017;28;20235;-80
2020/12/30 18:46:33;;;;;;;2.80;2.03;;;;;;;;;;5036596;28;20235;-79
2020/12/30 18:49:01;;;;;;;2.77;2.00;;;;;;;;;;5040048;28;20231;-79
2020/12/30 18:51:29;;;;;;;5.27;2.37;;;;;;;;;;5037370;28;20223;-80
2020/12/30 18:53:57;;;;;;;2.90;2.40;;;;;;;;;;5045199;28;20234;-79
2020/12/30 18:56:28;;;;;;;3.47;2.17;;;;;;;;;;5021565;28;20207;-80
2020/12/30 18:58:56;;;;;;;3.97;2.20;;;;;;;;;;5033982;28;20231;-80
2020/12/30 19:01:24;;;;;;;4.67;2.57;;;;;;;;;;5033668;28;20236;-81
2020/12/30 19:03:52;;;;;;;3.50;2.20;;;;;;;;;;5022576;28;20271;-79
2020/12/30 19:06:21;;;;;;;2.30;1.90;;;;;;;;;;5044734;28;20234;-79
2020/12/30 19:08:58;;;;;;;2.83;2.20;;;;;;;;;;5028459;28;20235;-80
2020/12/30 19:11:28;;;;;;;3.07;2.37;;;;;;;;;;5042985;28;20242;-80
2020/12/30 19:13:58;;;;;;;5.13;2.50;;;;;;;;;;5028179;28;20563;-80
2020/12/30 19:16:27;;;;;;;4.17;2.67;;;;;;;;;;5043965;28;20234;-80
2020/12/30 19:18:55;;;;;;;3.10;2.60;;;;;;;;;;5048370;28;20234;-78
2020/12/30 19:21:23;;;;;;;4.30;2.80;;;;;;;;;;5034547;28;20215;-80
2020/12/30 19:23:50;;;;;;;3.53;2.83;;;;;;;;;;5044597;28;20638;-78
2020/12/30 19:26:20;;;;;;;9.27;2.77;;;;;;;;;;5050249;28;20238;-78
2020/12/30 19:28:49;;;;;;;4.43;2.53;;;;;;;;;;5033511;28;20238;-79
2020/12/30 19:31:23;;;;;;;4.00;2.27;;;;;;;;;;5048114;28;20227;-78
2020/12/30 19:33:52;;;;;;;3.97;2.37;;;;;;;;;;5060439;28;20289;-79
2020/12/30 19:36:21;;;;;;;3.33;2.40;;;;;;;;;;5050257;28;20249;-79
2020/12/30 19:38:49;;;;;;;2.63;2.33;;;;;;;;;;5035041;28;20227;-79
2020/12/30 19:41:18;;;;;;;3.13;2.50;;;;;;;;;;5067782;28;20235;-79
2020/12/30 19:43:48;;;;;;;3.63;2.70;;;;;;;;;;5060484;28;20227;-79
2020/12/30 19:46:21;;;;;;;3.30;2.23;;;;;;;;;;5042025;28;20230;-79
2020/12/30 19:48:55;;;;;;;4.50;2.67;;;;;;;;;;5042324;28;20233;-81
2020/12/30 19:51:24;;;;;;;3.10;2.50;;;;;;;;;;5030789;28;20234;-80
2020/12/30 19:53:52;;;;;;;2.40;2.17;;;;;;;;;;5046390;28;20216;-81
2020/12/30 19:56:29;;;;;;;4.60;2.30;;;;;;;;;;5047397;28;20220;-80
2020/12/30 19:58:58;;;;;;;3.43;2.13;;;;;;;;;;5046636;28;20230;-80
2020/12/30 20:01:26;;;;;;;3.37;2.40;;;;;;;;;;5061407;28;20231;-80
2020/12/30 20:03:54;;;;;;;3.00;2.53;;;;;;;;;;5047275;28;20231;-80
2020/12/30 20:06:23;;;;;;;3.83;2.63;;;;;;;;;;5079018;28;20223;-79
2020/12/30 20:08:51;;;;;;;3.90;2.67;;;;;;;;;;5048912;28;20228;-80
2020/12/30 20:11:19;;;;;;;3.47;2.33;;;;;;;;;;5043615;28;20235;-80
2020/12/30 20:13:49;;;;;;;2.97;2.47;;;;;;;;;;5049266;28;20238;-79
2020/12/30 20:16:18;;;;;;;4.67;2.60;;;;;;;;;;5046283;28;20223;-80
2020/12/30 20:18:46;;;;;;;3.57;2.63;;;;;;;;;;5050532;28;20243;-79
2020/12/30 20:21:21;;;;;;;3.80;2.93;;;;;;;;;;5040141;28;20231;-80
2020/12/30 20:23:49;;;;;;;4.50;2.73;;;;;;;;;;5036402;28;20235;-80
2020/12/30 20:26:17;;;;;;;4.80;2.50;;;;;;;;;;5034294;28;20705;-80
2020/12/30 20:28:45;;;;;;;3.60;2.97;;;;;;;;;;5040482;28;20720;-81
2020/12/30 20:31:13;;;;;;;5.43;3.07;;;;;;;;;;5006943;28;21136;-80
2020/12/30 20:33:45;;;;;;;4.27;2.80;;;;;;;;;;5040986;28;20227;-79
2020/12/30 20:36:15;;;;;;;3.53;2.93;;;;;;;;;;5043991;28;20234;-79
2020/12/30 20:38:45;;;;;;;2.67;2.20;;;;;;;;;;5012223;28;20227;-79
2020/12/30 20:41:14;;;;;;;3.40;2.90;;;;;;;;;;5031906;28;20231;-79
2020/12/30 20:43:42;;;;;;;5.43;2.80;;;;;;;;;;5030368;28;20223;-78
2020/12/30 20:46:13;;;;;;;4.37;2.63;;;;;;;;;;5008985;28;20242;-80
2020/12/30 20:48:45;;;;;;;3.20;2.53;;;;;;;;;;5005750;28;20253;-78
2020/12/30 20:51:17;;;;;;;4.70;3.27;;;;;;;;;;5037074;28;20619;-79
2020/12/30 20:53:48;;;;;;;4.37;2.63;;;;;;;;;;5044704;28;20230;-79
2020/12/30 20:56:28;;;;;;;3.33;2.50;;;;;;;;;;5026492;28;20719;-79
2020/12/30 20:59:05;;;;;;;4.73;3.03;;;;;;;;;;5014793;28;20227;-79
2020/12/30 21:01:42;;;;;;;3.27;2.60;;;;;;;;;;5026240;28;20235;-79
2020/12/30 21:04:17;;;;;;;4.03;3.00;;;;;;;;;;5011292;28;20235;-79
2020/12/30 21:06:54;;;;;;;5.17;2.90;;;;;;;;;;5045387;28;20242;-79
2020/12/30 21:12:56;;;;;;;5.70;3.20;;;;;;;;;;5007853;28;20231;-79
2020/12/30 21:19:40;;;;;;;4.97;3.30;;;;;;;;;;4974225;28;20231;-79
2020/12/30 21:23:25;;;;;;;5.37;3.13;;;;;;;;;;5018774;28;20241;-79
2020/12/30 21:26:16;;;;;;;4.77;3.20;;;;;;;;;;5008925;28;20426;-79
2020/12/30 21:29:00;;;;;;;7.03;3.30;;;;;;;;;;5044703;28;20231;-80
2020/12/30 21:31:44;;;;;;;6.97;3.67;;;;;;;;;;5014810;28;20223;-79
2020/12/30 21:34:48;;;;;;;6.50;4.47;;;;;;;;;;5035259;28;20233;-79
2020/12/30 21:37:32;;;;;;;6.37;3.73;;;;;;;;;;5027749;28;20231;-79
2020/12/30 21:41:04;;;;;;;4.60;3.47;;;;;;;;;;5020304;28;20233;-78
2020/12/30 21:57:09;;;;;;;4.37;3.33;;;;;;;;;;5716864;23;20225;-80
2020/12/30 21:59:42;;;;;;;8.00;3.87;;;;;;;;;;4971842;28;20226;-80
2020/12/30 22:02:30;;;;;;;5.80;3.80;;;;;;;;;;5000501;28;20713;-80
2020/12/30 22:05:00;;;;;;;4.27;3.10;;;;;;;;;;5007434;28;20705;-80
2020/12/30 22:07:36;;;;;;;5.07;3.63;;;;;;;;;;5001177;28;20671;-80